sensor_id;sensor_type;location;lat;lon;timestamp;pressure;altitude;pressure_sealevel;temperature
20289;BMP180;10303;51.960;8.372;2024-03-02T00:01:15;99198.00;;;10.00
20289;BMP180;10303;51.960;8.372;2024-03-02T00:03:42;99207.00;;;10.00
20289;BMP180;10303;51.960;8.372;2024-03-02T00:06:10;99198.00;;;10.00
20289;BMP180;10303;51.960;8.372;2024-03-02T00:08:36;99206.00;;;10.00
20289;BMP180;10303;51.960;8.372;2024-03-02T00:11:02;99206.00;;;10.00
20289;BMP180;10303;51.960;8.372;2024-03-02T00:13:29;99204.00;;;10.00
20289;BMP180;10303;51.960;8.372;2024-03-02T00:15:57;99194.00;;;10.00
20289;BMP180;10303;51.960;8.372;2024-03-02T00:18:35;99196.00;;;9.90
20289;BMP180;10303;51.960;8.372;2024-03-02T00:21:01;99194.00;;;10.00
20289;BMP180;10303;51.960;8.372;2024-03-02T00:23:33;99192.00;;;9.90
20289;BMP180;10303;51.960;8.372;2024-03-02T00:26:01;99192.00;;;9.90
20289;BMP180;10303;51.960;8.372;2024-03-02T00:28:33;99191.00;;;9.90
20289;BMP180;10303;51.960;8.372;2024-03-02T00:31:08;99190.00;;;9.90
20289;BMP180;10303;51.960;8.372;2024-03-02T00:33:36;99184.00;;;9.90
20289;BMP180;10303;51.960;8.372;2024-03-02T00:36:04;99185.00;;;9.90
20289;BMP180;10303;51.960;8.372;2024-03-02T00:38:31;99174.00;;;9.90
20289;BMP180;10303;51.960;8.372;2024-03-02T00:41:05;99179.00;;;9.80
20289;BMP180;10303;51.960;8.372;2024-03-02T00:46:23;99175.00;;;9.80
20289;BMP180;10303;51.960;8.372;2024-03-02T00:48:56;99173.00;;;9.80
20289;BMP180;10303;51.960;8.372;2024-03-02T00:51:25;99166.00;;;9.80
20289;BMP180;10303;51.960;8.372;2024-03-02T00:53:59;99167.00;;;9.80
20289;BMP180;10303;51.960;8.372;2024-03-02T00:56:25;99174.00;;;9.80
20289;BMP180;10303;51.960;8.372;2024-03-02T00:58:52;99167.00;;;9.80
20289;BMP180;10303;51.960;8.372;2024-03-02T01:01:19;99168.00;;;9.80
20289;BMP180;10303;51.960;8.372;2024-03-02T01:03:49;99160.00;;;9.80
20289;BMP180;10303;51.960;8.372;2024-03-02T01:06:16;99162.00;;;9.80
20289;BMP180;10303;51.960;8.372;2024-03-02T01:08:43;99174.00;;;9.80
20289;BMP180;10303;51.960;8.372;2024-03-02T01:11:09;99170.00;;;9.80
20289;BMP180;10303;51.960;8.372;2024-03-02T01:13:36;99160.00;;;9.80
20289;BMP180;10303;51.960;8.372;2024-03-02T01:16:02;99176.00;;;9.80
20289;BMP180;10303;51.960;8.372;2024-03-02T01:18:28;99169.00;;;9.80
20289;BMP180;10303;51.960;8.372;2024-03-02T01:20:54;99172.00;;;9.80
20289;BMP180;10303;51.960;8.372;2024-03-02T01:23:24;99173.00;;;9.80
20289;BMP180;10303;51.960;8.372;2024-03-02T01:25:51;99166.00;;;9.80
20289;BMP180;10303;51.960;8.372;2024-03-02T01:28:18;99163.00;;;9.80
20289;BMP180;10303;51.960;8.372;2024-03-02T01:30:44;99159.00;;;9.80
20289;BMP180;10303;51.960;8.372;2024-03-02T01:33:11;99155.00;;;9.80
20289;BMP180;10303;51.960;8.372;2024-03-02T01:35:37;99143.00;;;9.80
20289;BMP180;10303;51.960;8.372;2024-03-02T01:38:04;99150.00;;;9.80
20289;BMP180;10303;51.960;8.372;2024-03-02T01:40:34;99156.00;;;9.80
20289;BMP180;10303;51.960;8.372;2024-03-02T01:43:01;99153.00;;;9.80
20289;BMP180;10303;51.960;8.372;2024-03-02T01:45:28;99152.00;;;9.80
20289;BMP180;10303;51.960;8.372;2024-03-02T01:47:54;99148.00;;;9.80
20289;BMP180;10303;51.960;8.372;2024-03-02T01:50:32;99156.00;;;9.80
20289;BMP180;10303;51.960;8.372;2024-03-02T01:52:59;99151.00;;;9.80
20289;BMP180;10303;51.960;8.372;2024-03-02T01:55:26;99141.00;;;9.80
20289;BMP180;10303;51.960;8.372;2024-03-02T01:57:53;99149.00;;;9.80
20289;BMP180;10303;51.960;8.372;2024-03-02T02:00:20;99148.00;;;9.80
20289;BMP180;10303;51.960;8.372;2024-03-02T02:02:49;99143.00;;;9.80
20289;BMP180;10303;51.960;8.372;2024-03-02T02:05:17;99140.00;;;9.80
20289;BMP180;10303;51.960;8.372;2024-03-02T02:07:43;99135.00;;;9.80
20289;BMP180;10303;51.960;8.372;2024-03-02T02:10:13;99132.00;;;9.80
20289;BMP180;10303;51.960;8.372;2024-03-02T02:12:39;99130.00;;;9.90
20289;BMP180;10303;51.960;8.372;2024-03-02T02:15:25;99123.00;;;9.80
20289;BMP180;10303;51.960;8.372;2024-03-02T02:17:53;99117.00;;;9.90
20289;BMP180;10303;51.960;8.372;2024-03-02T02:20:19;99115.00;;;9.90
20289;BMP180;10303;51.960;8.372;2024-03-02T02:22:58;99107.00;;;9.80
20289;BMP180;10303;51.960;8.372;2024-03-02T02:25:25;99103.00;;;9.90
20289;BMP180;10303;51.960;8.372;2024-03-02T02:27:52;99094.00;;;9.90
20289;BMP180;10303;51.960;8.372;2024-03-02T02:30:27;99088.00;;;9.80
20289;BMP180;10303;51.960;8.372;2024-03-02T02:32:53;99080.00;;;9.90
20289;BMP180;10303;51.960;8.372;2024-03-02T02:35:19;99088.00;;;9.90
20289;BMP180;10303;51.960;8.372;2024-03-02T02:37:47;99095.00;;;9.80
20289;BMP180;10303;51.960;8.372;2024-03-02T02:40:13;99076.00;;;9.90
20289;BMP180;10303;51.960;8.372;2024-03-02T02:42:40;99080.00;;;9.80
20289;BMP180;10303;51.960;8.372;2024-03-02T02:45:07;99086.00;;;9.80
20289;BMP180;10303;51.960;8.372;2024-03-02T02:47:33;99074.00;;;9.80
20289;BMP180;10303;51.960;8.372;2024-03-02T02:50:03;99081.00;;;9.80
20289;BMP180;10303;51.960;8.372;2024-03-02T02:52:37;99084.00;;;9.80
20289;BMP180;10303;51.960;8.372;2024-03-02T02:55:09;99086.00;;;9.80
20289;BMP180;10303;51.960;8.372;2024-03-02T02:57:36;99077.00;;;9.80
20289;BMP180;10303;51.960;8.372;2024-03-02T03:00:13;99072.00;;;9.80
20289;BMP180;10303;51.960;8.372;2024-03-02T03:02:45;99078.00;;;9.80
20289;BMP180;10303;51.960;8.372;2024-03-02T03:05:14;99059.00;;;9.80
20289;BMP180;10303;51.960;8.372;2024-03-02T03:07:40;99071.00;;;9.80
20289;BMP180;10303;51.960;8.372;2024-03-02T03:10:08;99066.00;;;9.80
20289;BMP180;10303;51.960;8.372;2024-03-02T03:12:35;99062.00;;;9.80
20289;BMP180;10303;51.960;8.372;2024-03-02T03:15:02;99058.00;;;9.80
20289;BMP180;10303;51.960;8.372;2024-03-02T03:17:30;99052.00;;;9.80
20289;BMP180;10303;51.960;8.372;2024-03-02T03:19:56;99054.00;;;9.80
20289;BMP180;10303;51.960;8.372;2024-03-02T03:22:22;99052.00;;;9.80
20289;BMP180;10303;51.960;8.372;2024-03-02T03:24:48;99042.00;;;9.80
20289;BMP180;10303;51.960;8.372;2024-03-02T03:27:14;99057.00;;;9.80
20289;BMP180;10303;51.960;8.372;2024-03-02T03:29:40;99072.00;;;9.80
20289;BMP180;10303;51.960;8.372;2024-03-02T03:32:06;99072.00;;;9.80
20289;BMP180;10303;51.960;8.372;2024-03-02T03:34:33;99075.00;;;9.80
20289;BMP180;10303;51.960;8.372;2024-03-02T03:37:00;99067.00;;;9.80
20289;BMP180;10303;51.960;8.372;2024-03-02T03:39:26;99069.00;;;9.80
20289;BMP180;10303;51.960;8.372;2024-03-02T03:41:52;99071.00;;;9.80
20289;BMP180;10303;51.960;8.372;2024-03-02T03:44:18;99073.00;;;9.80
20289;BMP180;10303;51.960;8.372;2024-03-02T03:46:44;99069.00;;;9.80
20289;BMP180;10303;51.960;8.372;2024-03-02T03:49:10;99069.00;;;9.80
20289;BMP180;10303;51.960;8.372;2024-03-02T03:51:36;99070.00;;;9.80
20289;BMP180;10303;51.960;8.372;2024-03-02T03:54:02;99064.00;;;9.80
20289;BMP180;10303;51.960;8.372;2024-03-02T03:56:28;99067.00;;;9.80
20289;BMP180;10303;51.960;8.372;2024-03-02T03:58:54;99080.00;;;9.80
20289;BMP180;10303;51.960;8.372;2024-03-02T04:01:20;99069.00;;;9.80
20289;BMP180;10303;51.960;8.372;2024-03-02T04:03:48;99072.00;;;9.80
20289;BMP180;10303;51.960;8.372;2024-03-02T04:06:14;99076.00;;;9.70
20289;BMP180;10303;51.960;8.372;2024-03-02T04:08:42;99082.00;;;9.70
20289;BMP180;10303;51.960;8.372;2024-03-02T04:11:08;99075.00;;;9.70
20289;BMP180;10303;51.960;8.372;2024-03-02T04:13:34;99083.00;;;9.70
20289;BMP180;10303;51.960;8.372;2024-03-02T04:16:00;99079.00;;;9.70
20289;BMP180;10303;51.960;8.372;2024-03-02T04:18:26;99085.00;;;9.70
20289;BMP180;10303;51.960;8.372;2024-03-02T04:20:51;99081.00;;;9.70
20289;BMP180;10303;51.960;8.372;2024-03-02T04:23:17;99083.00;;;9.70
20289;BMP180;10303;51.960;8.372;2024-03-02T04:25:43;99077.00;;;9.60
20289;BMP180;10303;51.960;8.372;2024-03-02T04:28:09;99076.00;;;9.60
20289;BMP180;10303;51.960;8.372;2024-03-02T04:30:35;99086.00;;;9.60
20289;BMP180;10303;51.960;8.372;2024-03-02T04:33:01;99083.00;;;9.60
20289;BMP180;10303;51.960;8.372;2024-03-02T04:35:28;99089.00;;;9.60
20289;BMP180;10303;51.960;8.372;2024-03-02T04:37:54;99094.00;;;9.60
20289;BMP180;10303;51.960;8.372;2024-03-02T04:40:20;99085.00;;;9.60
20289;BMP180;10303;51.960;8.372;2024-03-02T04:42:46;99082.00;;;9.60
20289;BMP180;10303;51.960;8.372;2024-03-02T04:45:12;99087.00;;;9.60
20289;BMP180;10303;51.960;8.372;2024-03-02T04:47:38;99091.00;;;9.60
20289;BMP180;10303;51.960;8.372;2024-03-02T04:50:04;99088.00;;;9.60
20289;BMP180;10303;51.960;8.372;2024-03-02T04:52:31;99100.00;;;9.60
20289;BMP180;10303;51.960;8.372;2024-03-02T04:54:57;99095.00;;;9.60
20289;BMP180;10303;51.960;8.372;2024-03-02T04:57:41;99095.00;;;9.60
20289;BMP180;10303;51.960;8.372;2024-03-02T05:00:07;99102.00;;;9.60
20289;BMP180;10303;51.960;8.372;2024-03-02T05:02:35;99104.00;;;9.60
20289;BMP180;10303;51.960;8.372;2024-03-02T05:05:01;99111.00;;;9.60
20289;BMP180;10303;51.960;8.372;2024-03-02T05:07:28;99112.00;;;9.60
20289;BMP180;10303;51.960;8.372;2024-03-02T05:09:54;99113.00;;;9.60
20289;BMP180;10303;51.960;8.372;2024-03-02T05:12:20;99112.00;;;9.60
20289;BMP180;10303;51.960;8.372;2024-03-02T05:15:04;99112.00;;;9.60
20289;BMP180;10303;51.960;8.372;2024-03-02T05:17:30;99111.00;;;9.60
20289;BMP180;10303;51.960;8.372;2024-03-02T05:19:56;99112.00;;;9.60
20289;BMP180;10303;51.960;8.372;2024-03-02T05:22:22;99116.00;;;9.60
20289;BMP180;10303;51.960;8.372;2024-03-02T05:24:48;99118.00;;;9.60
20289;BMP180;10303;51.960;8.372;2024-03-02T05:27:14;99116.00;;;9.60
20289;BMP180;10303;51.960;8.372;2024-03-02T05:29:40;99112.00;;;9.60
20289;BMP180;10303;51.960;8.372;2024-03-02T05:32:06;99117.00;;;9.60
20289;BMP180;10303;51.960;8.372;2024-03-02T05:34:32;99120.00;;;9.60
20289;BMP180;10303;51.960;8.372;2024-03-02T05:37:01;99117.00;;;9.60
20289;BMP180;10303;51.960;8.372;2024-03-02T05:39:27;99126.00;;;9.60
20289;BMP180;10303;51.960;8.372;2024-03-02T05:41:53;99122.00;;;9.60
20289;BMP180;10303;51.960;8.372;2024-03-02T05:44:19;99118.00;;;9.60
20289;BMP180;10303;51.960;8.372;2024-03-02T05:46:45;99127.00;;;9.60
20289;BMP180;10303;51.960;8.372;2024-03-02T05:49:11;99119.00;;;9.60
20289;BMP180;10303;51.960;8.372;2024-03-02T05:51:37;99116.00;;;9.60
20289;BMP180;10303;51.960;8.372;2024-03-02T05:54:03;99121.00;;;9.60
20289;BMP180;10303;51.960;8.372;2024-03-02T05:56:29;99124.00;;;9.60
20289;BMP180;10303;51.960;8.372;2024-03-02T05:58:55;99128.00;;;9.60
20289;BMP180;10303;51.960;8.372;2024-03-02T06:01:44;99128.00;;;9.60
20289;BMP180;10303;51.960;8.372;2024-03-02T06:04:11;99127.00;;;9.60
20289;BMP180;10303;51.960;8.372;2024-03-02T06:06:37;99124.00;;;9.60
20289;BMP180;10303;51.960;8.372;2024-03-02T06:09:05;99131.00;;;9.60
20289;BMP180;10303;51.960;8.372;2024-03-02T06:11:37;99133.00;;;9.60
20289;BMP180;10303;51.960;8.372;2024-03-02T06:14:04;99132.00;;;9.60
20289;BMP180;10303;51.960;8.372;2024-03-02T06:16:30;99131.00;;;9.60
20289;BMP180;10303;51.960;8.372;2024-03-02T06:18:57;99118.00;;;9.60
20289;BMP180;10303;51.960;8.372;2024-03-02T06:21:27;99130.00;;;9.60
20289;BMP180;10303;51.960;8.372;2024-03-02T06:23:54;99133.00;;;9.60
20289;BMP180;10303;51.960;8.372;2024-03-02T06:26:20;99140.00;;;9.70
20289;BMP180;10303;51.960;8.372;2024-03-02T06:28:46;99151.00;;;9.70
20289;BMP180;10303;51.960;8.372;2024-03-02T06:31:12;99152.00;;;9.70
20289;BMP180;10303;51.960;8.372;2024-03-02T06:33:38;99157.00;;;9.70
20289;BMP180;10303;51.960;8.372;2024-03-02T06:36:06;99151.00;;;9.70
20289;BMP180;10303;51.960;8.372;2024-03-02T06:38:35;99164.00;;;9.70
20289;BMP180;10303;51.960;8.372;2024-03-02T06:41:01;99154.00;;;9.70
20289;BMP180;10303;51.960;8.372;2024-03-02T06:43:27;99156.00;;;9.70
20289;BMP180;10303;51.960;8.372;2024-03-02T06:45:53;99161.00;;;9.70
20289;BMP180;10303;51.960;8.372;2024-03-02T06:48:19;99170.00;;;9.70
20289;BMP180;10303;51.960;8.372;2024-03-02T06:50:50;99169.00;;;9.70
20289;BMP180;10303;51.960;8.372;2024-03-02T06:53:16;99165.00;;;9.70
20289;BMP180;10303;51.960;8.372;2024-03-02T06:55:44;99174.00;;;9.70
20289;BMP180;10303;51.960;8.372;2024-03-02T06:58:14;99171.00;;;9.70
20289;BMP180;10303;51.960;8.372;2024-03-02T07:00:43;99167.00;;;9.70
20289;BMP180;10303;51.960;8.372;2024-03-02T07:03:13;99171.00;;;9.80
20289;BMP180;10303;51.960;8.372;2024-03-02T07:05:39;99173.00;;;9.70
20289;BMP180;10303;51.960;8.372;2024-03-02T07:08:06;99172.00;;;9.80
20289;BMP180;10303;51.960;8.372;2024-03-02T07:10:32;99176.00;;;9.80
20289;BMP180;10303;51.960;8.372;2024-03-02T07:12:57;99177.00;;;9.80
20289;BMP180;10303;51.960;8.372;2024-03-02T07:15:23;99179.00;;;9.80
20289;BMP180;10303;51.960;8.372;2024-03-02T07:17:52;99181.00;;;9.80
20289;BMP180;10303;51.960;8.372;2024-03-02T07:20:18;99180.00;;;9.90
20289;BMP180;10303;51.960;8.372;2024-03-02T07:22:44;99175.00;;;9.90
20289;BMP180;10303;51.960;8.372;2024-03-02T07:25:10;99178.00;;;9.90
20289;BMP180;10303;51.960;8.372;2024-03-02T07:27:36;99185.00;;;9.90
20289;BMP180;10303;51.960;8.372;2024-03-02T07:30:03;99190.00;;;9.90
20289;BMP180;10303;51.960;8.372;2024-03-02T07:32:29;99177.00;;;10.00
20289;BMP180;10303;51.960;8.372;2024-03-02T07:34:55;99184.00;;;10.00
20289;BMP180;10303;51.960;8.372;2024-03-02T07:37:24;99186.00;;;10.00
20289;BMP180;10303;51.960;8.372;2024-03-02T07:39:51;99189.00;;;10.10
20289;BMP180;10303;51.960;8.372;2024-03-02T07:42:17;99186.00;;;10.10
20289;BMP180;10303;51.960;8.372;2024-03-02T07:44:46;99187.00;;;10.10
20289;BMP180;10303;51.960;8.372;2024-03-02T07:47:12;99189.00;;;10.20
20289;BMP180;10303;51.960;8.372;2024-03-02T07:49:38;99194.00;;;10.30
20289;BMP180;10303;51.960;8.372;2024-03-02T07:52:04;99180.00;;;10.30
20289;BMP180;10303;51.960;8.372;2024-03-02T07:54:30;99197.00;;;10.40
20289;BMP180;10303;51.960;8.372;2024-03-02T07:56:56;99190.00;;;10.40
20289;BMP180;10303;51.960;8.372;2024-03-02T07:59:23;99198.00;;;10.50
20289;BMP180;10303;51.960;8.372;2024-03-02T08:01:49;99188.00;;;10.50
20289;BMP180;10303;51.960;8.372;2024-03-02T08:04:21;99207.00;;;10.60
20289;BMP180;10303;51.960;8.372;2024-03-02T08:06:47;99209.00;;;10.70
20289;BMP180;10303;51.960;8.372;2024-03-02T08:09:13;99208.00;;;10.70
20289;BMP180;10303;51.960;8.372;2024-03-02T08:11:39;99208.00;;;10.80
20289;BMP180;10303;51.960;8.372;2024-03-02T08:14:05;99213.00;;;10.90
20289;BMP180;10303;51.960;8.372;2024-03-02T08:16:31;99206.00;;;10.90
20289;BMP180;10303;51.960;8.372;2024-03-02T08:18:58;99215.00;;;11.00
20289;BMP180;10303;51.960;8.372;2024-03-02T08:21:25;99218.00;;;11.10
20289;BMP180;10303;51.960;8.372;2024-03-02T08:23:51;99220.00;;;11.10
20289;BMP180;10303;51.960;8.372;2024-03-02T08:26:17;99208.00;;;11.20
20289;BMP180;10303;51.960;8.372;2024-03-02T08:28:43;99208.00;;;11.30
20289;BMP180;10303;51.960;8.372;2024-03-02T08:31:10;99206.00;;;11.30
20289;BMP180;10303;51.960;8.372;2024-03-02T08:33:36;99214.00;;;11.40
20289;BMP180;10303;51.960;8.372;2024-03-02T08:36:02;99216.00;;;11.40
20289;BMP180;10303;51.960;8.372;2024-03-02T08:38:28;99225.00;;;11.50
20289;BMP180;10303;51.960;8.372;2024-03-02T08:40:55;99225.00;;;11.60
20289;BMP180;10303;51.960;8.372;2024-03-02T08:43:21;99218.00;;;11.70
20289;BMP180;10303;51.960;8.372;2024-03-02T08:45:48;99206.00;;;11.80
20289;BMP180;10303;51.960;8.372;2024-03-02T08:48:14;99218.00;;;11.90
20289;BMP180;10303;51.960;8.372;2024-03-02T08:50:40;99225.00;;;12.00
20289;BMP180;10303;51.960;8.372;2024-03-02T08:53:06;99222.00;;;12.10
20289;BMP180;10303;51.960;8.372;2024-03-02T08:55:32;99223.00;;;12.20
20289;BMP180;10303;51.960;8.372;2024-03-02T08:57:58;99226.00;;;12.40
20289;BMP180;10303;51.960;8.372;2024-03-02T09:00:25;99226.00;;;12.60
20289;BMP180;10303;51.960;8.372;2024-03-02T09:02:51;99230.00;;;12.80
20289;BMP180;10303;51.960;8.372;2024-03-02T09:05:17;99224.00;;;13.10
20289;BMP180;10303;51.960;8.372;2024-03-02T09:07:43;99223.00;;;13.30
20289;BMP180;10303;51.960;8.372;2024-03-02T09:10:09;99230.00;;;13.50
20289;BMP180;10303;51.960;8.372;2024-03-02T09:12:36;99231.00;;;13.70
20289;BMP180;10303;51.960;8.372;2024-03-02T09:15:04;99240.00;;;13.90
20289;BMP180;10303;51.960;8.372;2024-03-02T09:17:30;99232.00;;;14.20
20289;BMP180;10303;51.960;8.372;2024-03-02T09:19:56;99230.00;;;14.50
20289;BMP180;10303;51.960;8.372;2024-03-02T09:22:22;99229.00;;;14.70
20289;BMP180;10303;51.960;8.372;2024-03-02T09:24:48;99229.00;;;15.00
20289;BMP180;10303;51.960;8.372;2024-03-02T09:27:15;99231.00;;;15.30
20289;BMP180;10303;51.960;8.372;2024-03-02T09:29:41;99223.00;;;15.60
20289;BMP180;10303;51.960;8.372;2024-03-02T09:32:11;99231.00;;;15.80
20289;BMP180;10303;51.960;8.372;2024-03-02T09:34:37;99239.00;;;16.10
20289;BMP180;10303;51.960;8.372;2024-03-02T09:37:03;99241.00;;;16.30
20289;BMP180;10303;51.960;8.372;2024-03-02T09:39:30;99229.00;;;16.40
20289;BMP180;10303;51.960;8.372;2024-03-02T09:42:01;99234.00;;;16.60
20289;BMP180;10303;51.960;8.372;2024-03-02T09:44:29;99226.00;;;16.80
20289;BMP180;10303;51.960;8.372;2024-03-02T09:46:55;99231.00;;;17.00
20289;BMP180;10303;51.960;8.372;2024-03-02T09:49:22;99224.00;;;17.20
20289;BMP180;10303;51.960;8.372;2024-03-02T09:51:49;99236.00;;;17.40
20289;BMP180;10303;51.960;8.372;2024-03-02T09:54:16;99229.00;;;17.60
20289;BMP180;10303;51.960;8.372;2024-03-02T09:56:44;99240.00;;;17.90
20289;BMP180;10303;51.960;8.372;2024-03-02T09:59:10;99238.00;;;18.00
20289;BMP180;10303;51.960;8.372;2024-03-02T10:01:36;99233.00;;;18.30
20289;BMP180;10303;51.960;8.372;2024-03-02T10:04:02;99245.00;;;18.50
20289;BMP180;10303;51.960;8.372;2024-03-02T10:06:29;99233.00;;;18.70
20289;BMP180;10303;51.960;8.372;2024-03-02T10:08:56;99246.00;;;18.80
20289;BMP180;10303;51.960;8.372;2024-03-02T10:11:33;99244.00;;;18.90
20289;BMP180;10303;51.960;8.372;2024-03-02T10:14:12;99240.00;;;19.10
20289;BMP180;10303;51.960;8.372;2024-03-02T10:16:43;99237.00;;;19.20
20289;BMP180;10303;51.960;8.372;2024-03-02T10:19:17;99238.00;;;19.30
20289;BMP180;10303;51.960;8.372;2024-03-02T10:21:52;99248.00;;;19.40
20289;BMP180;10303;51.960;8.372;2024-03-02T10:24:20;99248.00;;;19.50
20289;BMP180;10303;51.960;8.372;2024-03-02T10:26:47;99249.00;;;19.50
20289;BMP180;10303;51.960;8.372;2024-03-02T10:29:14;99238.00;;;19.60
20289;BMP180;10303;51.960;8.372;2024-03-02T10:31:43;99247.00;;;19.70
20289;BMP180;10303;51.960;8.372;2024-03-02T10:34:11;99225.00;;;19.90
20289;BMP180;10303;51.960;8.372;2024-03-02T10:36:42;99234.00;;;19.90
20289;BMP180;10303;51.960;8.372;2024-03-02T10:39:10;99226.00;;;20.10
20289;BMP180;10303;51.960;8.372;2024-03-02T10:41:38;99228.00;;;20.30
20289;BMP180;10303;51.960;8.372;2024-03-02T10:44:07;99223.00;;;20.40
20289;BMP180;10303;51.960;8.372;2024-03-02T10:46:35;99231.00;;;20.70
20289;BMP180;10303;51.960;8.372;2024-03-02T10:49:04;99230.00;;;20.90
20289;BMP180;10303;51.960;8.372;2024-03-02T10:51:33;99231.00;;;21.00
20289;BMP180;10303;51.960;8.372;2024-03-02T10:54:01;99231.00;;;21.10
20289;BMP180;10303;51.960;8.372;2024-03-02T10:56:42;99223.00;;;21.20
20289;BMP180;10303;51.960;8.372;2024-03-02T11:01:59;99226.00;;;21.40
20289;BMP180;10303;51.960;8.372;2024-03-02T11:04:28;99221.00;;;21.50
20289;BMP180;10303;51.960;8.372;2024-03-02T11:07:02;99220.00;;;21.50
20289;BMP180;10303;51.960;8.372;2024-03-02T11:09:33;99217.00;;;21.60
20289;BMP180;10303;51.960;8.372;2024-03-02T11:12:11;99216.00;;;21.80
20289;BMP180;10303;51.960;8.372;2024-03-02T11:14:41;99236.00;;;21.90
20289;BMP180;10303;51.960;8.372;2024-03-02T11:17:13;99222.00;;;22.10
20289;BMP180;10303;51.960;8.372;2024-03-02T11:19:42;99237.00;;;22.20
20289;BMP180;10303;51.960;8.372;2024-03-02T11:22:09;99233.00;;;22.30
20289;BMP180;10303;51.960;8.372;2024-03-02T11:24:35;99236.00;;;22.40
20289;BMP180;10303;51.960;8.372;2024-03-02T11:27:06;99234.00;;;22.50
20289;BMP180;10303;51.960;8.372;2024-03-02T11:32:18;99238.00;;;22.60
20289;BMP180;10303;51.960;8.372;2024-03-02T11:34:47;99246.00;;;22.60
20289;BMP180;10303;51.960;8.372;2024-03-02T11:37:17;99251.00;;;22.60
20289;BMP180;10303;51.960;8.372;2024-03-02T11:39:45;99238.00;;;22.60
20289;BMP180;10303;51.960;8.372;2024-03-02T11:42:13;99240.00;;;22.70
20289;BMP180;10303;51.960;8.372;2024-03-02T11:44:48;99247.00;;;22.70
20289;BMP180;10303;51.960;8.372;2024-03-02T11:47:16;99243.00;;;22.90
20289;BMP180;10303;51.960;8.372;2024-03-02T11:49:50;99227.00;;;22.90
20289;BMP180;10303;51.960;8.372;2024-03-02T11:52:22;99223.00;;;23.00
20289;BMP180;10303;51.960;8.372;2024-03-02T11:54:48;99223.00;;;23.10
20289;BMP180;10303;51.960;8.372;2024-03-02T11:57:20;99218.00;;;23.20
20289;BMP180;10303;51.960;8.372;2024-03-02T11:59:48;99225.00;;;23.20
20289;BMP180;10303;51.960;8.372;2024-03-02T12:02:18;99230.00;;;23.30
20289;BMP180;10303;51.960;8.372;2024-03-02T12:04:45;99213.00;;;23.30
20289;BMP180;10303;51.960;8.372;2024-03-02T12:07:12;99218.00;;;23.40
20289;BMP180;10303;51.960;8.372;2024-03-02T12:09:38;99215.00;;;23.70
20289;BMP180;10303;51.960;8.372;2024-03-02T12:12:09;99213.00;;;23.80
20289;BMP180;10303;51.960;8.372;2024-03-02T12:14:37;99215.00;;;23.90
20289;BMP180;10303;51.960;8.372;2024-03-02T12:17:05;99212.00;;;24.10
20289;BMP180;10303;51.960;8.372;2024-03-02T12:19:33;99209.00;;;24.20
20289;BMP180;10303;51.960;8.372;2024-03-02T12:22:02;99213.00;;;24.30
20289;BMP180;10303;51.960;8.372;2024-03-02T12:24:29;99205.00;;;24.40
20289;BMP180;10303;51.960;8.372;2024-03-02T12:26:56;99207.00;;;24.50
20289;BMP180;10303;51.960;8.372;2024-03-02T12:29:23;99212.00;;;24.40
20289;BMP180;10303;51.960;8.372;2024-03-02T12:31:51;99214.00;;;24.40
20289;BMP180;10303;51.960;8.372;2024-03-02T12:34:21;99205.00;;;24.40
20289;BMP180;10303;51.960;8.372;2024-03-02T12:36:49;99209.00;;;24.50
20289;BMP180;10303;51.960;8.372;2024-03-02T12:39:19;99211.00;;;24.50
20289;BMP180;10303;51.960;8.372;2024-03-02T12:41:50;99212.00;;;24.60
20289;BMP180;10303;51.960;8.372;2024-03-02T12:44:20;99211.00;;;24.50
20289;BMP180;10303;51.960;8.372;2024-03-02T12:46:46;99205.00;;;24.40
20289;BMP180;10303;51.960;8.372;2024-03-02T12:49:15;99192.00;;;24.40
20289;BMP180;10303;51.960;8.372;2024-03-02T12:51:46;99196.00;;;24.40
20289;BMP180;10303;51.960;8.372;2024-03-02T12:54:17;99209.00;;;24.40
20289;BMP180;10303;51.960;8.372;2024-03-02T12:56:43;99200.00;;;24.30
20289;BMP180;10303;51.960;8.372;2024-03-02T12:59:19;99203.00;;;24.20
20289;BMP180;10303;51.960;8.372;2024-03-02T13:01:55;99201.00;;;24.10
20289;BMP180;10303;51.960;8.372;2024-03-02T13:04:28;99204.00;;;24.00
20289;BMP180;10303;51.960;8.372;2024-03-02T13:06:55;99196.00;;;24.00
20289;BMP180;10303;51.960;8.372;2024-03-02T13:09:23;99195.00;;;23.90
20289;BMP180;10303;51.960;8.372;2024-03-02T13:11:50;99199.00;;;23.90
20289;BMP180;10303;51.960;8.372;2024-03-02T13:14:16;99199.00;;;23.90
20289;BMP180;10303;51.960;8.372;2024-03-02T13:16:42;99192.00;;;23.70
20289;BMP180;10303;51.960;8.372;2024-03-02T13:19:09;99190.00;;;23.60
20289;BMP180;10303;51.960;8.372;2024-03-02T13:21:36;99189.00;;;23.40
20289;BMP180;10303;51.960;8.372;2024-03-02T13:24:03;99196.00;;;23.40
20289;BMP180;10303;51.960;8.372;2024-03-02T13:26:29;99197.00;;;23.30
20289;BMP180;10303;51.960;8.372;2024-03-02T13:28:55;99187.00;;;23.10
20289;BMP180;10303;51.960;8.372;2024-03-02T13:31:21;99191.00;;;22.90
20289;BMP180;10303;51.960;8.372;2024-03-02T13:33:47;99179.00;;;22.70
20289;BMP180;10303;51.960;8.372;2024-03-02T13:36:13;99195.00;;;22.50
20289;BMP180;10303;51.960;8.372;2024-03-02T13:38:39;99186.00;;;22.40
20289;BMP180;10303;51.960;8.372;2024-03-02T13:41:05;99183.00;;;22.30
20289;BMP180;10303;51.960;8.372;2024-03-02T13:43:31;99188.00;;;22.20
20289;BMP180;10303;51.960;8.372;2024-03-02T13:45:58;99177.00;;;22.10
20289;BMP180;10303;51.960;8.372;2024-03-02T13:48:24;99184.00;;;22.00
20289;BMP180;10303;51.960;8.372;2024-03-02T13:50:53;99174.00;;;21.90
20289;BMP180;10303;51.960;8.372;2024-03-02T13:53:20;99182.00;;;21.80
20289;BMP180;10303;51.960;8.372;2024-03-02T13:55:46;99177.00;;;21.60
20289;BMP180;10303;51.960;8.372;2024-03-02T13:58:12;99176.00;;;21.50
20289;BMP180;10303;51.960;8.372;2024-03-02T14:00:39;99178.00;;;21.40
20289;BMP180;10303;51.960;8.372;2024-03-02T14:03:06;99182.00;;;21.20
20289;BMP180;10303;51.960;8.372;2024-03-02T14:05:33;99164.00;;;21.10
20289;BMP180;10303;51.960;8.372;2024-03-02T14:07:58;99177.00;;;21.00
20289;BMP180;10303;51.960;8.372;2024-03-02T14:10:26;99172.00;;;20.80
20289;BMP180;10303;51.960;8.372;2024-03-02T14:12:53;99166.00;;;20.80
20289;BMP180;10303;51.960;8.372;2024-03-02T14:15:22;99155.00;;;20.70
20289;BMP180;10303;51.960;8.372;2024-03-02T14:17:48;99156.00;;;20.70
20289;BMP180;10303;51.960;8.372;2024-03-02T14:20:14;99162.00;;;20.60
20289;BMP180;10303;51.960;8.372;2024-03-02T14:22:40;99156.00;;;20.60
20289;BMP180;10303;51.960;8.372;2024-03-02T14:25:07;99164.00;;;20.50